createdAt,value
2022-10-22T00:00:22.367Z,100770.47
2022-10-22T00:05:42.891Z,100777.53
2022-10-22T00:11:21.814Z,100782.03
2022-10-22T00:16:42.376Z,100776.97
2022-10-22T00:22:05.811Z,100781.41
2022-10-22T00:27:26.427Z,100779.09
2022-10-22T00:32:46.784Z,100792.22
2022-10-22T00:38:07.564Z,100795.84
2022-10-22T00:43:28.283Z,100794.56
2022-10-22T00:48:49.641Z,100786.28
2022-10-22T00:54:10.803Z,100791.63
2022-10-22T00:59:31.807Z,100787.63
2022-10-22T01:04:52.602Z,100792.22
2022-10-22T01:10:19.219Z,100785.41
2022-10-22T01:15:53.764Z,100786.63
2022-10-22T01:21:25.189Z,100777.38
2022-10-22T01:27:10.813Z,100766.34
2022-10-22T01:32:37.045Z,100758.47
2022-10-22T01:38:03.643Z,100761.88
2022-10-22T01:43:25.739Z,100770.53
2022-10-22T01:49:25.496Z,100778.69
2022-10-22T01:54:59.699Z,100772.00
2022-10-22T02:00:20.709Z,100785.78
2022-10-22T02:05:49.063Z,100777.47
2022-10-22T02:11:12.743Z,100782.63
2022-10-22T02:16:41.587Z,100785.38
2022-10-22T02:22:02.926Z,100782.06
2022-10-22T02:27:30.358Z,100789.63
2022-10-22T02:33:08.542Z,100784.56
2022-10-22T02:38:31.078Z,100793.84
2022-10-22T02:43:54.970Z,100789.31
2022-10-22T02:49:15.692Z,100783.97
2022-10-22T02:54:36.559Z,100792.34
2022-10-22T02:59:57.052Z,100803.22
2022-10-22T03:05:18.296Z,100797.88
2022-10-22T03:10:38.768Z,100807.03
2022-10-22T03:15:59.699Z,100797.47
2022-10-22T03:21:33.986Z,100795.72
2022-10-22T03:26:54.641Z,100798.13
2022-10-22T03:32:15.183Z,100806.00
2022-10-22T03:37:37.613Z,100811.50
2022-10-22T03:42:58.787Z,100816.78
2022-10-22T03:48:19.632Z,100819.56
2022-10-22T03:53:40.593Z,100817.00
2022-10-22T03:59:02.251Z,100813.38
2022-10-22T04:04:22.874Z,100822.56
2022-10-22T04:09:43.675Z,100828.50
2022-10-22T04:15:05.478Z,100829.31
2022-10-22T04:20:27.910Z,100833.69
2022-10-22T04:25:48.394Z,100825.25
2022-10-22T04:31:18.482Z,100827.16
2022-10-22T04:36:38.675Z,100837.41
2022-10-22T04:41:59.167Z,100841.69
2022-10-22T04:47:19.923Z,100836.56
2022-10-22T04:52:40.675Z,100834.97
2022-10-22T04:58:01.352Z,100835.09
2022-10-22T05:03:21.577Z,100839.44
2022-10-22T05:08:43.565Z,100838.69
2022-10-22T05:14:06.092Z,100845.47
2022-10-22T05:19:29.391Z,100843.78
2022-10-22T05:24:50.252Z,100834.28
2022-10-22T05:30:11.730Z,100834.38
2022-10-22T05:35:32.729Z,100838.56
2022-10-22T05:41:05.757Z,100842.84
2022-10-22T05:46:29.570Z,100840.13
2022-10-22T05:51:49.958Z,100842.63
2022-10-22T05:57:10.743Z,100836.69
2022-10-22T06:02:31.767Z,100837.34
2022-10-22T06:07:52.687Z,100857.13
2022-10-22T06:13:13.498Z,100863.22
2022-10-22T06:18:34.712Z,100869.31
2022-10-22T06:23:59.566Z,100867.72
2022-10-22T06:29:20.521Z,100868.56
2022-10-22T06:34:41.141Z,100872.81
2022-10-22T06:40:01.311Z,100880.53
2022-10-22T06:45:21.587Z,100884.84
2022-10-22T06:50:42.020Z,100882.19
2022-10-22T06:56:10.418Z,100889.19
2022-10-22T07:01:33.581Z,100898.66
2022-10-22T07:06:57.358Z,100904.72
2022-10-22T07:12:17.823Z,100902.13
2022-10-22T07:23:03.831Z,100900.13
2022-10-22T07:28:25.147Z,100897.97
2022-10-22T07:33:45.999Z,100893.47
2022-10-22T07:39:06.667Z,100900.59
2022-10-22T07:44:27.215Z,100916.44
2022-10-22T07:49:47.566Z,100923.69
2022-10-22T07:55:08.743Z,100924.28
2022-10-22T08:00:29.229Z,100931.00
2022-10-22T08:05:51.339Z,100922.72
2022-10-22T08:11:12.078Z,100931.94
2022-10-22T08:16:32.541Z,100942.75
2022-10-22T08:21:53.315Z,100951.63
2022-10-22T08:27:14.248Z,100946.91
2022-10-22T08:32:34.581Z,100947.91
2022-10-22T08:37:55.036Z,100950.06
2022-10-22T08:43:41.742Z,100945.81
2022-10-22T08:49:05.579Z,100948.16
2022-10-22T08:54:43.182Z,100955.44
2022-10-22T09:00:15.264Z,100961.44
2022-10-22T09:06:13.326Z,100952.16
2022-10-22T09:11:39.754Z,100948.97
2022-10-22T09:17:28.612Z,100947.53
2022-10-22T09:23:18.032Z,100944.31
2022-10-22T09:28:38.732Z,100959.34
2022-10-22T09:34:05.714Z,100947.47
2022-10-22T09:46:56.910Z,100962.00
2022-10-22T09:52:28.830Z,100954.19
2022-10-22T09:57:58.299Z,100963.00
2022-10-22T10:03:22.310Z,100978.81
2022-10-22T10:08:42.929Z,100982.28
2022-10-22T10:14:13.715Z,100978.38
2022-10-22T10:19:43.435Z,100983.50
2022-10-22T10:25:13.357Z,100984.31
2022-10-22T10:30:44.639Z,100989.34
2022-10-22T10:36:27.585Z,100996.28
2022-10-22T10:42:06.722Z,100996.75
2022-10-22T10:47:30.172Z,100998.19
2022-10-22T10:53:03.714Z,100997.38
2022-10-22T10:58:39.106Z,100990.31
2022-10-22T11:04:21.154Z,100999.03
2022-10-22T11:10:03.458Z,101004.06
2022-10-22T11:15:37.749Z,100997.88
2022-10-22T11:21:18.872Z,101005.63
2022-10-22T11:27:05.391Z,101009.25
2022-10-22T11:32:27.333Z,101009.44
2022-10-22T11:37:49.252Z,101013.91
2022-10-22T11:43:25.427Z,101006.94
2022-10-22T11:49:01.928Z,101022.13
2022-10-22T11:54:42.829Z,101011.34
2022-10-22T12:00:28.289Z,101002.44
2022-10-22T12:06:12.174Z,101024.78
2022-10-22T12:11:37.647Z,101020.56
2022-10-22T12:17:10.118Z,101015.13
2022-10-22T12:22:32.902Z,101011.63
2022-10-22T12:27:57.190Z,101011.75
2022-10-22T12:33:22.756Z,101016.03
2022-10-22T12:38:47.193Z,101006.13
2022-10-22T12:44:10.919Z,101019.50
2022-10-22T12:49:38.825Z,101019.03
2022-10-22T12:54:59.618Z,101024.41
2022-10-22T13:00:32.371Z,101015.88
2022-10-22T13:05:52.979Z,101026.88
2022-10-22T13:11:13.817Z,101028.81
2022-10-22T13:22:00.288Z,101034.91
2022-10-22T13:27:21.062Z,101032.56
2022-10-22T13:32:42.019Z,101041.50
2022-10-22T13:38:03.893Z,101034.03
2022-10-22T13:43:32.212Z,101029.00
2022-10-22T13:48:55.460Z,101029.50
2022-10-22T13:54:22.646Z,101027.28
2022-10-22T13:59:43.334Z,101028.31
2022-10-22T14:05:08.572Z,101020.72
2022-10-22T14:10:28.898Z,101020.00
2022-10-22T14:15:53.183Z,101013.22
2022-10-22T14:21:16.851Z,101019.28
2022-10-22T14:26:37.366Z,101027.84
2022-10-22T14:31:57.774Z,101022.72
2022-10-22T14:37:20.526Z,101018.56
2022-10-22T14:42:43.176Z,101020.22
2022-10-22T14:48:04.260Z,101021.03
2022-10-22T14:53:24.617Z,101027.25
2022-10-22T14:58:46.592Z,101025.75
2022-10-22T15:04:07.332Z,101030.28
2022-10-22T15:09:27.852Z,101040.81
2022-10-22T15:14:48.379Z,101034.78
2022-10-22T15:20:09.887Z,101043.41
2022-10-22T15:25:30.627Z,101052.84
2022-10-22T15:30:59.628Z,101043.47
2022-10-22T15:36:20.104Z,101064.16
2022-10-22T15:41:40.975Z,101054.69
2022-10-22T15:47:04.072Z,101061.47
2022-10-22T15:52:25.436Z,101064.03
2022-10-22T15:57:46.319Z,101072.44
2022-10-22T16:03:07.684Z,101080.09
2022-10-22T16:08:28.434Z,101078.38
2022-10-22T16:13:53.792Z,101086.13
2022-10-22T16:19:16.469Z,101088.56
2022-10-22T16:24:40.901Z,101087.66
2022-10-22T16:30:01.407Z,101096.97
2022-10-22T16:35:22.260Z,101107.22
2022-10-22T16:40:42.611Z,101110.63
2022-10-22T16:46:04.033Z,101114.75
2022-10-22T16:51:26.408Z,101119.00
2022-10-22T16:56:47.080Z,101124.16
2022-10-22T17:02:12.120Z,101126.75
2022-10-22T17:07:32.785Z,101143.84
2022-10-22T17:12:53.565Z,101150.19
2022-10-22T17:18:14.456Z,101158.09
2022-10-22T17:23:35.493Z,101159.09
2022-10-22T17:28:56.141Z,101161.94
2022-10-22T17:34:18.382Z,101163.81
2022-10-22T17:39:39.596Z,101163.13
2022-10-22T17:45:00.744Z,101166.56
2022-10-22T17:50:21.646Z,101175.91
2022-10-22T17:55:42.006Z,101180.16
2022-10-22T18:01:03.281Z,101188.72
2022-10-22T18:06:23.685Z,101198.84
2022-10-22T18:11:44.910Z,101197.03
2022-10-22T18:17:05.509Z,101204.72
2022-10-22T18:22:26.676Z,101205.47
2022-10-22T18:27:47.872Z,101210.59
2022-10-22T18:33:11.795Z,101197.72
2022-10-22T18:38:33.014Z,101199.28
2022-10-22T18:44:02.273Z,101199.47
2022-10-22T18:49:25.668Z,101217.50
2022-10-22T18:54:46.277Z,101217.44
2022-10-22T19:00:07.858Z,101210.59
2022-10-22T19:05:28.723Z,101219.09
2022-10-22T19:10:49.185Z,101225.16
2022-10-22T19:16:18.374Z,101225.31
2022-10-22T19:21:39.191Z,101228.66
2022-10-22T19:26:59.664Z,101230.31
2022-10-22T19:32:20.993Z,101241.47
2022-10-22T19:37:46.187Z,101240.63
2022-10-22T19:43:08.943Z,101254.34
2022-10-22T19:48:29.976Z,101258.56
2022-10-22T19:53:51.037Z,101265.34
2022-10-22T19:59:12.166Z,101262.91
2022-10-22T20:04:32.625Z,101268.81
2022-10-22T20:09:53.755Z,101281.56
2022-10-22T20:15:14.259Z,101288.44
2022-10-22T20:20:38.142Z,101279.94
2022-10-22T20:25:58.496Z,101286.88
2022-10-22T20:31:21.330Z,101291.53
2022-10-22T20:36:41.923Z,101295.34
2022-10-22T20:42:02.726Z,101291.31
2022-10-22T20:47:30.394Z,101306.97
2022-10-22T20:53:00.076Z,101324.25
2022-10-22T20:58:24.461Z,101322.63
2022-10-22T21:03:51.996Z,101324.47
2022-10-22T21:09:14.555Z,101327.22
2022-10-22T21:14:35.370Z,101329.06
2022-10-22T21:19:56.441Z,101322.31
2022-10-22T21:25:17.239Z,101319.84
2022-10-22T21:30:44.743Z,101312.31
2022-10-22T21:36:06.894Z,101314.97
2022-10-22T21:41:27.408Z,101323.69
2022-10-22T21:46:47.939Z,101328.97
2022-10-22T21:52:09.047Z,101336.75
2022-10-22T21:57:29.970Z,101332.47
2022-10-22T22:02:50.936Z,101332.53
2022-10-22T22:08:11.441Z,101330.00
2022-10-22T22:13:33.613Z,101320.63
2022-10-22T22:18:55.488Z,101320.59
2022-10-22T22:24:16.644Z,101326.63
2022-10-22T22:29:37.257Z,101320.63
2022-10-22T22:34:58.512Z,101319.81
2022-10-22T22:40:19.310Z,101316.53
2022-10-22T22:45:40.754Z,101320.97
2022-10-22T22:51:03.224Z,101313.34
2022-10-22T22:56:25.546Z,101302.22
2022-10-22T23:01:48.175Z,101306.59
2022-10-22T23:07:08.723Z,101310.94
2022-10-22T23:12:29.232Z,101313.59
2022-10-22T23:17:50.090Z,101315.34
2022-10-22T23:23:10.597Z,101314.63
2022-10-22T23:28:31.214Z,101318.13
2022-10-22T23:33:52.123Z,101307.09
2022-10-22T23:39:15.856Z,101305.47
2022-10-22T23:44:36.453Z,101314.06
2022-10-22T23:49:57.058Z,101323.53
2022-10-22T23:55:19.163Z,101327.03
